METAR Data
IDs: Format: Raw Decoded Include TAF

Data at: 0506 UTC 26 Sep 2018

KGUC 260456Z AUTO 04004KT 10SM CLR 04/M11 A3032 RMK AO2 SLP230 T00441106
KGUC 260356Z AUTO 00000KT 10SM CLR 06/M09 A3030 RMK AO2 SLP231 T00611094
KGUC 260256Z AUTO 01007KT 10SM CLR 09/M12 A3028 RMK AO2 SLP224 T00891122 51014
KGUC 260156Z AUTO 35008KT 10SM CLR 11/M14 A3027 RMK AO2 SLP232 T01111144
KGUC 260056Z AUTO 29008KT 10SM CLR 16/M15 A3025 RMK AO2 SLP206 T01611150
KGUC 252356Z AUTO 25011KT 10SM CLR 18/M13 A3023 RMK AO2 SLP196 T01831133 10200 20150 53002
KGUC 252256Z AUTO 25013KT 10SM CLR 19/M13 A3023 RMK AO2 SLP184 T01941128
KGUC 252156Z AUTO 24010G16KT 10SM CLR 19/M14 A3023 RMK AO2 SLP181 T01941144
KGUC 252056Z AUTO 23016G25KT 10SM CLR 19/M16 A3023 RMK AO2 PK WND 26027/2038 SLP178 T01941161 56008
KGUC 251956Z AUTO 23015G22KT 10SM CLR 19/M17 A3023 RMK AO2 WSHFT 1928 SLP178 T01891167
KGUC 251953Z AUTO 23013G24KT 10SM CLR 19/M17 A3023 RMK AO2 WSHFT 1928
KGUC 251856Z AUTO 35007KT 10SM CLR 18/M08 A3026 RMK AO2 SLP185 T01781078
KGUC 251756Z AUTO VRB05KT 10SM CLR 15/M06 A3028 RMK AO2 SLP199 T01501056 10156 21006 58009
KGUC 251656Z AUTO 23003KT 10SM CLR 13/M03 A3030 RMK AO2 SLP204 T01331028
KGUC 251556Z AUTO 00000KT 10SM CLR 09/M01 A3031 RMK AO2 SLP217 T00941011
KGUC 251456Z AUTO 00000KT 10SM CLR 06/01 A3031 RMK AO2 SLP220 T00610006 51013
KGUC 251356Z AUTO 00000KT 10SM CLR 00/M02 A3030 RMK AO2 SLP233 T00001017 FZRANO
KGUC 251256Z AUTO 00000KT 10SM CLR 01/M01 A3028 RMK AO2 SLP219 T00111011 FZRANO
KGUC 251156Z AUTO 00000KT 10SM CLR 01/M01 A3026 RMK AO2 SLP212 T00061006 10078 20006 53017 FZRANO
KGUC 251056Z AUTO 00000KT 10SM CLR 02/01 A3023 RMK AO2 SLP192 T00220011 FZRANO
KGUC 250956Z AUTO 00000KT 10SM CLR 03/01 A3021 RMK AO2 SLP177 T00330011
KGUC 250856Z AUTO 00000KT 10SM CLR 04/02 A3020 RMK AO2 SLP168 T00440022 53009
KGUC 250756Z AUTO 34003KT 10SM OVC100 07/03 A3018 RMK AO2 SLP155 T00670028
KGUC 250656Z AUTO 09004KT 10SM FEW100 08/03 A3016 RMK AO2 SLP141 T00780033
KGUC 250556Z AUTO 01005KT 10SM CLR 08/04 A3016 RMK AO2 SLP150 60000 T00780039 10178 20078 402170044 51008
KGUC 250456Z AUTO 00000KT 10SM SCT100 11/04 A3015 RMK AO2 RAE10 SLP143 P0000 T01060044
KGUC 250356Z AUTO 04006KT 10SM -RA FEW050 OVC090 12/05 A3015 RMK AO2 RAB50 SLP151 P0000 T01170050
KGUC 250256Z AUTO 02004KT 10SM BKN090 OVC110 13/05 A3013 RMK AO2 SLP148 T01330050 53003
KGUC 250156Z AUTO 00000KT 10SM BKN090 BKN110 14/04 A3012 RMK AO2 SLP150 T01390044
KGUC 250056Z AUTO 00000KT 10SM SCT095 SCT110 16/03 A3011 RMK AO2 SLP149 T01560033
KGUC 242356Z AUTO 00000KT 10SM FEW080 BKN090 16/04 A3012 RMK AO2 WSHFT 2255 SLP147 60000 T01560044 10217 20150 53003
KGUC 242320Z AUTO 01008KT 10SM FEW075 SCT110 17/04 A3011 RMK AO2 WSHFT 2255
KGUC 242256Z AUTO 27010KT 10SM SCT090 BKN110 18/03 A3011 RMK AO2 WSHFT 2214 RAB24E37 SLP134 P0000 T01780028
KGUC 242239Z AUTO 26008G17KT 10SM FEW070 SCT095 BKN110 18/02 A3011 RMK AO2 WSHFT 2214 RAB24E37 P0000
KGUC 242156Z AUTO 24011G19KT 10SM CLR 20/02 A3010 RMK AO2 LTG DSNT NE AND E RAB00E25 SLP126 P0000 T02000017
KGUC 242056Z AUTO 23016G23KT 10SM FEW080 SCT110 19/02 A3011 RMK AO2 SLP133 T01940022 56009
KGUC 241956Z AUTO 25008G19KT 10SM FEW075 20/01 A3012 RMK AO2 PK WND 29046/1927 SLP136 T02000011
KGUC 241856Z AUTO 24020G27KT 10SM BKN110 22/00 A3010 RMK AO2 PK WND 25027/1854 SLP119 T02170000
KGUC 241756Z AUTO 01004KT 10SM BKN080 BKN110 18/02 A3014 RMK AO2 WSHFT 1701 SLP140 60000 T01830017 10183 20044 58010
KGUC 241726Z AUTO 02014KT 10SM BKN080 BKN095 BKN120 17/03 A3015 RMK AO2 WSHFT 1701